createdAt,value
2019-05-01T00:01:34.435Z,98.58
2019-05-01T00:04:29.915Z,98.32
2019-05-01T00:06:59.910Z,99.50
2019-05-01T00:09:26.852Z,100.00
2019-05-01T00:11:54.021Z,100.00
2019-05-01T00:14:21.446Z,100.00
2019-05-01T00:16:48.804Z,100.00
2019-05-01T00:19:15.721Z,100.00
2019-05-01T00:21:42.672Z,100.00
2019-05-01T00:24:09.588Z,100.00
2019-05-01T00:26:36.563Z,100.00
2019-05-01T00:29:03.593Z,100.00
2019-05-01T00:31:30.546Z,100.00
2019-05-01T00:33:57.463Z,100.00
2019-05-01T00:36:24.431Z,100.00
2019-05-01T00:38:51.355Z,100.00
2019-05-01T00:41:18.298Z,100.00
2019-05-01T00:43:45.209Z,100.00
2019-05-01T00:46:12.185Z,100.00
2019-05-01T00:48:39.096Z,100.00
2019-05-01T00:51:06.045Z,100.00
2019-05-01T00:53:32.978Z,100.00
2019-05-01T00:56:19.560Z,100.00
2019-05-01T00:59:08.822Z,100.00
2019-05-01T01:01:56.556Z,100.00
2019-05-01T01:04:23.472Z,100.00
2019-05-01T01:06:50.418Z,100.00
2019-05-01T01:09:17.639Z,100.00
2019-05-01T01:11:44.598Z,100.00
2019-05-01T01:14:11.525Z,100.00
2019-05-01T01:16:38.486Z,100.00
2019-05-01T01:19:05.425Z,100.00
2019-05-01T01:21:32.373Z,100.00
2019-05-01T01:23:59.802Z,100.00
2019-05-01T01:26:26.764Z,100.00
2019-05-01T01:28:53.693Z,100.00
2019-05-01T01:31:20.640Z,100.00
2019-05-01T01:33:47.561Z,100.00
2019-05-01T01:36:14.528Z,100.00
2019-05-01T01:38:41.443Z,100.00
2019-05-01T01:41:08.406Z,100.00
2019-05-01T01:43:49.129Z,100.00
2019-05-01T01:46:18.090Z,100.00
2019-05-01T01:48:45.330Z,100.00
2019-05-01T01:51:12.347Z,100.00
2019-05-01T01:53:39.531Z,100.00
2019-05-01T01:56:06.454Z,100.00
2019-05-01T01:58:33.520Z,100.00
2019-05-01T02:01:13.622Z,100.00
2019-05-01T02:03:43.185Z,100.00
2019-05-01T02:06:10.473Z,100.00
2019-05-01T02:08:37.649Z,100.00
2019-05-01T02:11:04.671Z,100.00
2019-05-01T02:13:31.617Z,100.00
2019-05-01T02:15:58.534Z,100.00
2019-05-01T02:18:25.478Z,100.00
2019-05-01T02:20:52.397Z,100.00
2019-05-01T02:23:19.358Z,100.00
2019-05-01T02:25:46.266Z,100.00
2019-05-01T02:28:34.032Z,100.00
2019-05-01T02:31:27.395Z,100.00
2019-05-01T02:33:43.686Z,100.00
2019-05-01T02:36:12.733Z,100.00
2019-05-01T02:38:40.697Z,100.00
2019-05-01T02:41:09.882Z,100.00
2019-05-01T02:43:38.957Z,100.00
2019-05-01T02:46:09.503Z,100.00
2019-05-01T02:48:40.817Z,100.00
2019-05-01T02:51:09.255Z,100.00
2019-05-01T02:53:39.716Z,100.00
2019-05-01T02:56:33.802Z,100.00
2019-05-01T02:59:03.478Z,100.00
2019-05-01T03:01:45.717Z,100.00
2019-05-01T03:03:59.863Z,100.00
2019-05-01T03:06:28.887Z,100.00
2019-05-01T03:08:56.860Z,100.00
2019-05-01T03:11:23.832Z,100.00
2019-05-01T03:13:53.349Z,100.00
2019-05-01T03:16:21.504Z,100.00
2019-05-01T03:18:51.596Z,100.00
2019-05-01T03:21:39.093Z,100.00
2019-05-01T03:24:11.819Z,100.00
2019-05-01T03:26:38.744Z,100.00
2019-05-01T03:29:06.619Z,100.00
2019-05-01T03:31:33.663Z,100.00
2019-05-01T03:34:01.202Z,100.00
2019-05-01T03:36:28.441Z,100.00
2019-05-01T03:38:55.611Z,100.00
2019-05-01T03:41:22.541Z,100.00
2019-05-01T03:43:49.740Z,100.00
2019-05-01T03:46:16.899Z,100.00
2019-05-01T03:48:43.979Z,100.00
2019-05-01T03:51:11.120Z,100.00
2019-05-01T03:53:38.113Z,100.00
2019-05-01T03:56:05.215Z,100.00
2019-05-01T03:58:32.571Z,100.00
2019-05-01T04:01:28.202Z,100.00
2019-05-01T04:03:58.774Z,100.00
2019-05-01T04:06:26.625Z,100.00
2019-05-01T04:08:53.884Z,100.00
2019-05-01T04:11:21.197Z,100.00
2019-05-01T04:13:48.487Z,100.00
2019-05-01T04:16:15.977Z,100.00
2019-05-01T04:18:42.951Z,100.00
2019-05-01T04:21:10.173Z,100.00
2019-05-01T04:23:37.343Z,100.00
2019-05-01T04:26:05.579Z,100.00
2019-05-01T04:28:55.805Z,100.00
2019-05-01T04:31:42.468Z,100.00
2019-05-01T04:34:25.408Z,100.00
2019-05-01T04:36:54.799Z,100.00
2019-05-01T04:39:21.759Z,100.00
2019-05-01T04:41:49.708Z,100.00
2019-05-01T04:44:16.657Z,100.00
2019-05-01T04:46:43.821Z,100.00
2019-05-01T04:49:11.196Z,100.00
2019-05-01T04:51:38.737Z,100.00
2019-05-01T04:54:06.214Z,100.00
2019-05-01T04:56:33.459Z,100.00
2019-05-01T04:59:00.420Z,100.00
2019-05-01T05:01:34.439Z,100.00
2019-05-01T05:04:01.495Z,100.00
2019-05-01T05:06:28.433Z,100.00
2019-05-01T05:08:55.990Z,100.00
2019-05-01T05:11:26.007Z,100.00
2019-05-01T05:14:09.572Z,100.00
2019-05-01T05:17:04.790Z,100.00
2019-05-01T05:19:31.852Z,100.00
2019-05-01T05:21:58.888Z,100.00
2019-05-01T05:24:25.938Z,100.00
2019-05-01T05:26:53.361Z,100.00
2019-05-01T05:29:22.534Z,100.00
2019-05-01T05:31:51.950Z,100.00
2019-05-01T05:34:19.715Z,100.00
2019-05-01T05:36:48.364Z,100.00
2019-05-01T05:39:26.030Z,100.00
2019-05-01T05:41:54.571Z,100.00
2019-05-01T05:44:22.018Z,100.00
2019-05-01T05:46:49.052Z,100.00
2019-05-01T05:49:16.318Z,100.00
2019-05-01T05:51:53.932Z,100.00
2019-05-01T05:54:40.428Z,100.00
2019-05-01T05:57:16.596Z,100.00
2019-05-01T05:59:49.108Z,100.00
2019-05-01T06:02:31.484Z,100.00
2019-05-01T06:05:13.213Z,100.00
2019-05-01T06:08:04.000Z,100.00
2019-05-01T06:10:41.204Z,100.00
2019-05-01T06:13:21.853Z,100.00
2019-05-01T06:16:12.203Z,100.00
2019-05-01T06:18:51.277Z,100.00
2019-05-01T06:21:25.482Z,100.00
2019-05-01T06:24:05.956Z,100.00
2019-05-01T06:26:37.594Z,100.00
2019-05-01T06:29:02.121Z,100.00
2019-05-01T06:31:30.140Z,100.00
2019-05-01T06:33:57.173Z,100.00
2019-05-01T06:36:24.498Z,100.00
2019-05-01T06:38:52.149Z,100.00
2019-05-01T06:41:19.201Z,100.00
2019-05-01T06:44:02.103Z,100.00
2019-05-01T06:46:46.397Z,100.00
2019-05-01T06:49:42.876Z,100.00
2019-05-01T06:52:11.587Z,100.00
2019-05-01T06:54:39.140Z,100.00
2019-05-01T06:57:06.580Z,100.00
2019-05-01T06:59:36.568Z,100.00
2019-05-01T07:02:03.827Z,100.00
2019-05-01T07:04:32.330Z,100.00
2019-05-01T07:07:06.738Z,100.00
2019-05-01T07:09:32.542Z,100.00
2019-05-01T07:12:03.163Z,100.00
2019-05-01T07:14:30.200Z,100.00
2019-05-01T07:16:57.162Z,100.00
2019-05-01T07:19:42.579Z,100.00
2019-05-01T07:22:09.542Z,100.00
2019-05-01T07:24:36.475Z,100.00
2019-05-01T07:27:03.449Z,100.00
2019-05-01T07:29:32.966Z,100.00
2019-05-01T07:32:01.647Z,100.00
2019-05-01T07:34:28.994Z,100.00
2019-05-01T07:36:56.059Z,100.00
2019-05-01T07:39:23.008Z,100.00
2019-05-01T07:41:50.083Z,100.00
2019-05-01T07:44:33.913Z,100.00
2019-05-01T07:47:25.893Z,100.00
2019-05-01T07:49:56.912Z,100.00
2019-05-01T07:52:24.535Z,100.00
2019-05-01T07:54:53.408Z,100.00
2019-05-01T07:57:23.064Z,100.00
2019-05-01T07:59:50.021Z,100.00
2019-05-01T08:02:17.289Z,100.00
2019-05-01T08:04:44.208Z,100.00
2019-05-01T08:07:11.170Z,100.00
2019-05-01T08:09:38.221Z,100.00
2019-05-01T08:12:05.177Z,100.00
2019-05-01T08:14:32.134Z,100.00
2019-05-01T08:16:59.097Z,100.00
2019-05-01T08:19:34.714Z,100.00
2019-05-01T08:22:08.757Z,100.00
2019-05-01T08:24:35.722Z,100.00
2019-05-01T08:27:02.789Z,100.00
2019-05-01T08:29:48.130Z,100.00
2019-05-01T08:32:40.957Z,100.00
2019-05-01T08:35:10.147Z,100.00
2019-05-01T08:37:37.184Z,100.00
2019-05-01T08:40:05.296Z,100.00
2019-05-01T08:42:32.287Z,100.00
2019-05-01T08:45:21.619Z,100.00
2019-05-01T08:47:56.814Z,100.00
2019-05-01T08:50:25.982Z,100.00
2019-05-01T08:52:53.123Z,100.00
2019-05-01T08:55:20.048Z,100.00
2019-05-01T08:57:47.017Z,100.00
2019-05-01T09:00:14.751Z,100.00
2019-05-01T09:02:43.429Z,100.00
2019-05-01T09:05:27.753Z,100.00
2019-05-01T09:07:39.627Z,100.00
2019-05-01T09:10:09.069Z,98.85
2019-05-01T09:12:35.840Z,100.00
2019-05-01T09:15:07.120Z,98.52
2019-05-01T09:17:32.060Z,95.43
2019-05-01T09:19:58.994Z,98.08
2019-05-01T09:22:26.635Z,98.50
2019-05-01T09:24:53.635Z,97.82
2019-05-01T09:27:29.254Z,97.82
2019-05-01T09:29:58.458Z,95.91
2019-05-01T09:32:25.468Z,96.29
2019-05-01T09:34:52.476Z,95.40
2019-05-01T09:37:19.578Z,93.73
2019-05-01T09:39:47.454Z,95.40
2019-05-01T09:42:36.849Z,94.84
2019-05-01T09:45:25.360Z,95.98
2019-05-01T09:47:53.128Z,94.92
2019-05-01T09:50:20.191Z,94.08
2019-05-01T09:53:01.124Z,94.21
2019-05-01T09:55:49.136Z,92.71
2019-05-01T09:58:16.123Z,93.64
2019-05-01T10:00:43.067Z,93.10
2019-05-01T10:03:13.203Z,93.02
2019-05-01T10:05:42.883Z,94.09
2019-05-01T10:08:08.144Z,92.50
2019-05-01T10:10:37.015Z,91.96
2019-05-01T10:13:04.166Z,90.28
2019-05-01T10:15:31.181Z,88.34
2019-05-01T10:17:58.156Z,88.30
2019-05-01T10:20:25.118Z,89.51
2019-05-01T10:22:52.071Z,88.01
2019-05-01T10:25:18.993Z,87.71
2019-05-01T10:27:53.059Z,88.31
2019-05-01T10:30:45.641Z,87.91
2019-05-01T10:33:16.557Z,88.24
2019-05-01T10:36:18.311Z,87.63
2019-05-01T10:38:39.951Z,89.72
2019-05-01T10:41:09.291Z,86.80
2019-05-01T10:43:35.492Z,88.75
2019-05-01T10:46:02.518Z,87.21
2019-05-01T10:48:29.536Z,84.86
2019-05-01T10:50:56.506Z,83.03
2019-05-01T10:53:23.475Z,84.15
2019-05-01T10:55:50.453Z,83.54
2019-05-01T10:58:18.940Z,83.06
2019-05-01T11:00:48.665Z,81.09
2019-05-01T11:03:15.718Z,82.21
2019-05-01T11:05:55.043Z,82.68
2019-05-01T11:08:11.538Z,81.86
2019-05-01T11:10:38.521Z,80.33
2019-05-01T11:13:07.795Z,79.36
2019-05-01T11:15:34.329Z,82.73
2019-05-01T11:18:01.261Z,80.50
2019-05-01T11:20:28.231Z,78.89
2019-05-01T11:22:55.178Z,77.83
2019-05-01T11:25:22.144Z,81.28
2019-05-01T11:27:49.080Z,79.02
2019-05-01T11:30:16.359Z,76.63
2019-05-01T11:33:01.723Z,74.80
2019-05-01T11:35:48.346Z,75.28
2019-05-01T11:38:25.216Z,76.48
2019-05-01T11:40:56.636Z,75.14
2019-05-01T11:43:23.560Z,74.87
2019-05-01T11:45:50.526Z,78.00
2019-05-01T11:48:17.479Z,75.55
2019-05-01T11:50:44.445Z,73.73
2019-05-01T11:53:11.382Z,72.05
2019-05-01T11:55:38.352Z,73.73
2019-05-01T11:58:05.281Z,71.46
2019-05-01T12:00:32.243Z,72.83
2019-05-01T12:02:59.172Z,72.60
2019-05-01T12:05:26.140Z,73.29
2019-05-01T12:07:53.168Z,70.64
2019-05-01T12:10:20.148Z,70.96
2019-05-01T12:12:48.301Z,70.53
2019-05-01T12:15:16.370Z,69.49
2019-05-01T12:17:47.854Z,67.38
2019-05-01T12:20:15.666Z,70.97
2019-05-01T12:22:42.628Z,68.25
2019-05-01T12:25:10.002Z,67.92
2019-05-01T12:27:36.970Z,67.28
2019-05-01T12:30:05.286Z,73.75
2019-05-01T12:32:32.439Z,68.95
2019-05-01T12:34:59.408Z,70.10
2019-05-01T12:37:32.175Z,67.17
2019-05-01T12:39:59.186Z,65.44
2019-05-01T12:42:26.643Z,67.30
2019-05-01T12:44:53.621Z,67.78
2019-05-01T12:47:40.182Z,66.54
2019-05-01T12:50:07.713Z,66.76
2019-05-01T12:52:50.704Z,71.31
2019-05-01T12:55:27.155Z,70.97
2019-05-01T12:57:54.106Z,67.88
2019-05-01T13:00:25.535Z,68.62
2019-05-01T13:02:52.465Z,64.78
2019-05-01T13:05:19.456Z,69.39
2019-05-01T13:07:46.421Z,68.92
2019-05-01T13:10:13.423Z,66.43
2019-05-01T13:12:40.378Z,66.64
2019-05-01T13:15:07.318Z,66.50
2019-05-01T13:17:34.287Z,67.13
2019-05-01T13:20:01.220Z,67.21
2019-05-01T13:22:28.267Z,69.96
2019-05-01T13:24:55.204Z,68.61
2019-05-01T13:27:50.606Z,70.02
2019-05-01T13:30:37.187Z,70.39
2019-05-01T13:33:04.413Z,67.80
2019-05-01T13:35:31.425Z,66.90
2019-05-01T13:37:58.411Z,67.38
2019-05-01T13:40:25.384Z,65.64
2019-05-01T13:42:52.316Z,67.73
2019-05-01T13:45:19.234Z,67.71
2019-05-01T13:47:46.282Z,70.00
2019-05-01T13:50:13.928Z,67.57
2019-05-01T13:52:40.890Z,65.32
2019-05-01T13:55:08.341Z,67.67
2019-05-01T13:57:35.307Z,64.49
2019-05-01T14:00:02.570Z,66.10
2019-05-01T14:02:29.560Z,64.58
2019-05-01T14:04:56.517Z,62.14
2019-05-01T14:07:23.482Z,62.30
2019-05-01T14:09:50.523Z,62.76
2019-05-01T14:12:17.717Z,63.08
2019-05-01T14:14:44.695Z,60.47
2019-05-01T14:17:11.700Z,63.36
2019-05-01T14:19:41.260Z,60.04
2019-05-01T14:22:26.438Z,58.93
2019-05-01T14:24:56.110Z,58.24
2019-05-01T14:27:23.086Z,62.30
2019-05-01T14:29:57.681Z,62.82
2019-05-01T14:32:25.373Z,63.55
2019-05-01T14:34:52.319Z,63.37
2019-05-01T14:37:29.414Z,63.85
2019-05-01T14:39:48.173Z,60.76
2019-05-01T14:42:15.134Z,62.03
2019-05-01T14:44:42.064Z,62.14
2019-05-01T14:47:09.076Z,63.49
2019-05-01T14:49:36.022Z,61.87
2019-05-01T14:52:05.032Z,63.01
2019-05-01T14:54:32.413Z,61.47
2019-05-01T14:56:59.407Z,59.30
2019-05-01T14:59:26.371Z,60.62
2019-05-01T15:01:53.354Z,61.19
2019-05-01T15:04:20.288Z,61.10
2019-05-01T15:06:47.246Z,63.70
2019-05-01T15:09:14.174Z,63.99
2019-05-01T15:11:42.576Z,64.48
2019-05-01T15:14:29.121Z,64.72
2019-05-01T15:17:19.773Z,64.08
2019-05-01T15:20:12.164Z,65.37
2019-05-01T15:22:39.152Z,62.26
2019-05-01T15:25:06.211Z,63.08
2019-05-01T15:27:33.178Z,62.28
2019-05-01T15:30:00.097Z,60.24
2019-05-01T15:32:27.060Z,62.21
2019-05-01T15:34:54.004Z,62.53
2019-05-01T15:37:20.990Z,62.31
2019-05-01T15:39:58.426Z,61.89
2019-05-01T15:42:47.948Z,61.78
2019-05-01T15:45:14.972Z,61.72
2019-05-01T15:47:41.941Z,61.52
2019-05-01T15:50:08.882Z,62.11
2019-05-01T15:52:35.846Z,61.01
2019-05-01T15:55:03.207Z,61.62
2019-05-01T15:57:30.170Z,61.45
2019-05-01T15:59:57.110Z,62.87
2019-05-01T16:02:24.070Z,61.77
2019-05-01T16:04:51.000Z,61.98
2019-05-01T16:07:17.961Z,60.94
2019-05-01T16:09:44.889Z,60.81
2019-05-01T16:12:23.670Z,60.87
2019-05-01T16:14:50.831Z,62.17
2019-05-01T16:17:17.783Z,63.97
2019-05-01T16:19:44.788Z,64.45
2019-05-01T16:22:11.767Z,63.59
2019-05-01T16:24:38.715Z,61.14
2019-05-01T16:27:05.837Z,62.11
2019-05-01T16:29:32.828Z,63.54
2019-05-01T16:31:59.756Z,62.57
2019-05-01T16:34:26.720Z,63.00
2019-05-01T16:36:53.692Z,63.63
2019-05-01T16:39:52.159Z,63.26
2019-05-01T16:42:21.631Z,63.76
2019-05-01T16:45:37.967Z,65.66
2019-05-01T16:48:05.053Z,64.60
2019-05-01T16:50:32.004Z,65.37
2019-05-01T16:52:58.997Z,65.81
2019-05-01T16:55:26.031Z,65.47
2019-05-01T16:57:53.034Z,66.77
2019-05-01T17:00:37.383Z,65.73
2019-05-01T17:03:12.871Z,66.49
2019-05-01T17:05:50.453Z,64.37
2019-05-01T17:08:35.901Z,65.50
2019-05-01T17:10:58.490Z,65.25
2019-05-01T17:13:25.492Z,65.84
2019-05-01T17:15:52.432Z,65.94
2019-05-01T17:18:20.067Z,66.19
2019-05-01T17:20:47.039Z,67.68
2019-05-01T17:23:14.003Z,67.39
2019-05-01T17:25:41.290Z,68.00
2019-05-01T17:28:09.416Z,68.65
2019-05-01T17:30:42.317Z,69.36
2019-05-01T17:33:09.296Z,69.56
2019-05-01T17:35:36.894Z,69.33
2019-05-01T17:38:05.258Z,69.82
2019-05-01T17:40:32.236Z,70.23
2019-05-01T17:42:59.179Z,70.63
2019-05-01T17:45:29.917Z,70.78
2019-05-01T17:47:57.884Z,70.86
2019-05-01T17:50:23.925Z,70.96
2019-05-01T17:52:50.986Z,71.87
2019-05-01T17:55:17.965Z,72.06
2019-05-01T17:57:44.891Z,72.26
2019-05-01T18:00:38.859Z,73.21
2019-05-01T18:03:13.658Z,72.46
2019-05-01T18:05:56.181Z,73.58
2019-05-01T18:08:23.802Z,74.46
2019-05-01T18:10:50.801Z,73.90
2019-05-01T18:13:17.732Z,74.74
2019-05-01T18:15:45.260Z,73.54
2019-05-01T18:18:15.112Z,74.94
2019-05-01T18:20:41.177Z,75.12
2019-05-01T18:23:42.858Z,74.83
2019-05-01T18:26:45.042Z,75.96
2019-05-01T18:29:22.514Z,75.88
2019-05-01T18:31:49.441Z,75.73
2019-05-01T18:34:16.418Z,75.39
2019-05-01T18:36:48.904Z,76.39
2019-05-01T18:39:30.777Z,76.44
2019-05-01T18:42:00.703Z,76.49
2019-05-01T18:44:27.676Z,77.17
2019-05-01T18:46:54.709Z,77.18
2019-05-01T18:49:21.668Z,77.60
2019-05-01T18:51:48.599Z,77.70
2019-05-01T18:54:15.558Z,78.00
2019-05-01T18:56:42.592Z,78.17
2019-05-01T18:59:09.567Z,78.53
2019-05-01T19:01:36.605Z,78.50
2019-05-01T19:04:03.892Z,79.15
2019-05-01T19:06:40.970Z,78.88
2019-05-01T19:08:59.721Z,79.27
2019-05-01T19:11:26.758Z,79.72
2019-05-01T19:13:53.804Z,80.02
2019-05-01T19:16:20.797Z,79.86
2019-05-01T19:18:47.733Z,80.66
2019-05-01T19:21:16.883Z,81.76
2019-05-01T19:23:43.815Z,81.62
2019-05-01T19:26:11.176Z,81.86
2019-05-01T19:28:38.114Z,81.83
2019-05-01T19:31:05.103Z,82.12
2019-05-01T19:33:32.045Z,84.95
2019-05-01T19:36:02.722Z,84.65
2019-05-01T19:38:29.515Z,84.98
2019-05-01T19:40:56.770Z,85.35
2019-05-01T19:43:23.723Z,84.50
2019-05-01T19:45:50.796Z,85.12
2019-05-01T19:48:19.403Z,85.69
2019-05-01T19:50:48.353Z,85.37
2019-05-01T19:53:15.965Z,85.34
2019-05-01T19:55:44.965Z,85.82
2019-05-01T19:58:12.278Z,85.55
2019-05-01T20:01:05.107Z,86.77
2019-05-01T20:03:36.317Z,87.19
2019-05-01T20:06:05.694Z,87.48
2019-05-01T20:08:31.396Z,87.83
2019-05-01T20:10:58.377Z,88.00
2019-05-01T20:13:25.324Z,87.86
2019-05-01T20:15:52.294Z,88.71
2019-05-01T20:18:19.248Z,89.73
2019-05-01T20:20:46.222Z,90.25
2019-05-01T20:23:13.154Z,90.81
2019-05-01T20:25:40.131Z,91.01
2019-05-01T20:28:07.085Z,92.55
2019-05-01T20:30:34.062Z,92.64
2019-05-01T20:33:02.178Z,91.51
2019-05-01T20:35:30.240Z,92.31
2019-05-01T20:37:57.269Z,93.42
2019-05-01T20:40:24.484Z,93.28
2019-05-01T20:42:51.429Z,92.35
2019-05-01T20:45:19.660Z,91.95
2019-05-01T20:47:48.198Z,93.58
2019-05-01T20:50:15.692Z,91.82
2019-05-01T20:52:42.681Z,92.42
2019-05-01T20:55:09.729Z,92.93
2019-05-01T20:57:38.648Z,93.50
2019-05-01T21:00:06.411Z,93.07
2019-05-01T21:02:33.385Z,92.89
2019-05-01T21:05:32.186Z,93.31
2019-05-01T21:08:19.624Z,92.34
2019-05-01T21:10:54.629Z,92.21
2019-05-01T21:13:23.032Z,91.38
2019-05-01T21:15:50.465Z,91.19
2019-05-01T21:18:20.845Z,91.11
2019-05-01T21:20:46.271Z,91.67
2019-05-01T21:23:14.370Z,91.53
2019-05-01T21:25:41.385Z,92.26
2019-05-01T21:28:08.364Z,92.11
2019-05-01T21:30:38.714Z,90.75
2019-05-01T21:33:09.687Z,91.33
2019-05-01T21:35:34.181Z,92.28
2019-05-01T21:38:02.638Z,92.55
2019-05-01T21:40:40.145Z,92.90
2019-05-01T21:42:58.504Z,93.52
2019-05-01T21:45:25.442Z,93.40
2019-05-01T21:47:52.923Z,93.38
2019-05-01T21:50:22.840Z,92.71
2019-05-01T21:52:48.824Z,92.77
2019-05-01T21:55:15.768Z,92.89
2019-05-01T21:57:42.734Z,93.17
2019-05-01T22:00:10.281Z,92.77
2019-05-01T22:02:41.674Z,92.39
2019-05-01T22:05:06.756Z,93.14
2019-05-01T22:07:33.714Z,94.19
2019-05-01T22:10:00.917Z,93.47
2019-05-01T22:12:27.862Z,93.44
2019-05-01T22:14:58.330Z,93.87
2019-05-01T22:17:41.136Z,94.28
2019-05-01T22:20:10.234Z,95.12
2019-05-01T22:22:53.735Z,94.62
2019-05-01T22:25:42.994Z,95.15
2019-05-01T22:28:18.738Z,95.36
2019-05-01T22:30:52.489Z,96.06
2019-05-01T22:33:19.447Z,95.48
2019-05-01T22:35:50.976Z,96.32
2019-05-01T22:38:18.049Z,96.28
2019-05-01T22:41:06.017Z,96.69
2019-05-01T22:43:28.051Z,96.34
2019-05-01T22:45:56.217Z,96.99
2019-05-01T22:48:24.165Z,97.36
2019-05-01T22:50:55.508Z,96.84
2019-05-01T22:53:22.581Z,96.60
2019-05-01T22:55:49.599Z,97.85
2019-05-01T22:58:16.600Z,97.09
2019-05-01T23:00:52.416Z,97.10
2019-05-01T23:03:40.828Z,97.04
2019-05-01T23:06:06.269Z,96.73
2019-05-01T23:08:34.058Z,97.04
2019-05-01T23:11:01.015Z,97.59
2019-05-01T23:13:28.246Z,97.71
2019-05-01T23:15:56.193Z,97.75
2019-05-01T23:18:24.098Z,98.02
2019-05-01T23:20:51.100Z,98.43
2019-05-01T23:23:18.249Z,99.07
2019-05-01T23:25:45.291Z,99.04
2019-05-01T23:28:12.265Z,98.81
2019-05-01T23:30:39.240Z,98.75
2019-05-01T23:33:06.246Z,98.21
2019-05-01T23:35:33.758Z,97.12
2019-05-01T23:38:02.229Z,97.44
2019-05-01T23:40:32.295Z,97.71
2019-05-01T23:43:00.062Z,98.36
2019-05-01T23:45:27.741Z,98.75
2019-05-01T23:47:54.961Z,98.72
2019-05-01T23:50:25.016Z,99.36
2019-05-01T23:52:52.683Z,99.92
2019-05-01T23:55:22.556Z,100.00
2019-05-01T23:57:50.092Z,100.00
